createdAt,value
2019-03-22T00:00:17.223Z,86.2
2019-03-22T00:01:17.298Z,86.2
2019-03-22T00:02:16.617Z,86.2
2019-03-22T00:03:16.929Z,86.5
2019-03-22T00:04:17.266Z,86.4
2019-03-22T00:05:16.569Z,86.4
2019-03-22T00:06:16.845Z,86.0
2019-03-22T00:07:17.134Z,86.2
2019-03-22T00:08:16.434Z,86.2
2019-03-22T00:09:16.832Z,86.2
2019-03-22T00:10:17.156Z,86.5
2019-03-22T00:11:17.167Z,86.3
2019-03-22T00:12:16.492Z,86.1
2019-03-22T00:13:16.789Z,86.0
2019-03-22T00:14:17.089Z,86.0
2019-03-22T00:15:16.387Z,86.2
2019-03-22T00:16:16.707Z,86.3
2019-03-22T00:17:17.009Z,86.4
2019-03-22T00:18:16.308Z,86.6
2019-03-22T00:19:16.634Z,86.5
2019-03-22T00:20:16.946Z,86.7
2019-03-22T00:21:16.989Z,86.8
2019-03-22T00:22:16.299Z,86.8
2019-03-22T00:23:16.591Z,86.8
2019-03-22T00:24:16.899Z,87.0
2019-03-22T00:25:17.192Z,87.1
2019-03-22T00:26:16.501Z,87.2
2019-03-22T00:27:17.111Z,87.0
2019-03-22T00:28:16.453Z,87.0
2019-03-22T00:29:16.809Z,87.1
2019-03-22T00:30:17.132Z,87.1
2019-03-22T00:31:17.174Z,87.0
2019-03-22T00:32:16.510Z,87.1
2019-03-22T00:33:16.821Z,87.1
2019-03-22T00:34:17.122Z,87.1
2019-03-22T00:35:16.469Z,87.1
2019-03-22T00:36:16.796Z,87.2
2019-03-22T00:37:17.081Z,87.1
2019-03-22T00:38:16.384Z,87.3
2019-03-22T00:39:16.692Z,87.2
2019-03-22T00:40:17.019Z,87.1
2019-03-22T00:41:17.046Z,87.3
2019-03-22T00:42:16.350Z,87.2
2019-03-22T00:43:16.646Z,87.3
2019-03-22T00:44:16.922Z,87.2
2019-03-22T00:45:17.258Z,87.3
2019-03-22T00:46:16.587Z,87.3
2019-03-22T00:47:16.887Z,87.5
2019-03-22T00:48:17.185Z,87.6
2019-03-22T00:49:16.462Z,87.6
2019-03-22T00:50:16.761Z,88.0
2019-03-22T00:51:16.822Z,88.2
2019-03-22T00:52:17.100Z,88.2
2019-03-22T00:53:16.421Z,88.5
2019-03-22T00:54:16.736Z,88.4
2019-03-22T00:55:17.057Z,88.4
2019-03-22T00:56:16.393Z,88.6
2019-03-22T00:57:28.847Z,88.8
2019-03-22T00:58:17.266Z,88.9
2019-03-22T00:59:16.568Z,88.8
2019-03-22T01:00:16.945Z,88.8
2019-03-22T01:01:16.960Z,88.7
2019-03-22T01:02:17.252Z,88.6
2019-03-22T01:03:16.550Z,88.7
2019-03-22T01:04:16.856Z,88.6
2019-03-22T01:05:17.148Z,88.6
2019-03-22T01:06:16.459Z,88.5
2019-03-22T01:07:16.754Z,88.5
2019-03-22T01:08:17.061Z,88.5
2019-03-22T01:09:16.362Z,88.4
2019-03-22T01:10:16.681Z,88.6
2019-03-22T01:11:16.743Z,88.8
2019-03-22T01:12:17.035Z,88.5
2019-03-22T01:13:16.334Z,88.2
2019-03-22T01:14:16.655Z,88.5
2019-03-22T01:15:16.978Z,88.5
2019-03-22T01:16:17.317Z,88.7
2019-03-22T01:17:16.581Z,88.6
2019-03-22T01:18:16.872Z,88.4
2019-03-22T01:19:17.173Z,88.4
2019-03-22T01:20:16.464Z,88.4
2019-03-22T01:21:16.832Z,88.7
2019-03-22T01:22:17.134Z,88.8
2019-03-22T01:23:16.428Z,88.8
2019-03-22T01:24:16.789Z,88.8
2019-03-22T01:25:17.122Z,89.0
2019-03-22T01:26:16.434Z,89.1
2019-03-22T01:27:16.744Z,88.9
2019-03-22T01:28:17.071Z,89.0
2019-03-22T01:29:16.367Z,89.2
2019-03-22T01:30:16.646Z,89.0
2019-03-22T01:31:16.715Z,89.0
2019-03-22T01:32:17.013Z,89.1
2019-03-22T01:33:16.310Z,89.0
2019-03-22T01:34:16.623Z,89.2
2019-03-22T01:35:16.922Z,89.2
2019-03-22T01:36:17.245Z,89.2
2019-03-22T01:37:16.549Z,89.2
2019-03-22T01:38:16.848Z,89.3
2019-03-22T01:39:17.160Z,89.5
2019-03-22T01:40:16.495Z,89.6
2019-03-22T01:41:16.530Z,89.4
2019-03-22T01:42:16.839Z,89.5
2019-03-22T01:43:17.138Z,89.5
2019-03-22T01:44:16.453Z,89.7
2019-03-22T01:45:16.758Z,89.8
2019-03-22T01:46:17.059Z,89.8
2019-03-22T01:47:16.374Z,89.8
2019-03-22T01:48:16.669Z,89.8
2019-03-22T01:49:16.951Z,89.8
2019-03-22T01:50:17.256Z,89.8
2019-03-22T01:51:16.310Z,90.0
2019-03-22T01:52:16.600Z,90.0
2019-03-22T01:53:16.904Z,90.0
2019-03-22T01:54:17.195Z,89.9
2019-03-22T01:55:16.513Z,90.0
2019-03-22T01:56:16.818Z,90.0
2019-03-22T01:57:17.126Z,90.0
2019-03-22T01:58:16.465Z,90.2
2019-03-22T01:59:16.778Z,90.2
2019-03-22T02:00:17.136Z,90.3
2019-03-22T02:01:17.125Z,90.2
2019-03-22T02:02:16.439Z,90.2
2019-03-22T02:03:16.742Z,90.2
2019-03-22T02:04:17.081Z,90.0
2019-03-22T02:05:16.415Z,90.0
2019-03-22T02:06:16.691Z,90.1
2019-03-22T02:07:17.005Z,90.3
2019-03-22T02:08:16.324Z,90.4
2019-03-22T02:09:16.612Z,90.5
2019-03-22T02:10:16.936Z,90.4
2019-03-22T02:11:16.955Z,90.7
2019-03-22T02:12:17.262Z,90.5
2019-03-22T02:13:16.573Z,90.5
2019-03-22T02:14:16.915Z,90.5
2019-03-22T02:15:17.220Z,90.5
2019-03-22T02:16:16.547Z,90.5
2019-03-22T02:17:16.877Z,90.3
2019-03-22T02:18:17.157Z,90.5
2019-03-22T02:19:16.435Z,90.5
2019-03-22T02:20:16.783Z,90.4
2019-03-22T02:21:17.481Z,90.5
2019-03-22T02:22:16.780Z,90.7
2019-03-22T02:23:17.068Z,90.8
2019-03-22T02:24:16.377Z,90.7
2019-03-22T02:25:16.692Z,90.8
2019-03-22T02:26:17.006Z,90.8
2019-03-22T02:27:16.311Z,90.7
2019-03-22T02:28:16.652Z,90.7
2019-03-22T02:29:16.961Z,90.7
2019-03-22T02:30:17.283Z,90.7
2019-03-22T02:31:16.347Z,90.8
2019-03-22T02:32:16.649Z,90.8
2019-03-22T02:33:16.938Z,90.9
2019-03-22T02:34:17.253Z,90.9
2019-03-22T02:35:29.477Z,90.9
2019-03-22T02:36:17.028Z,91.0
2019-03-22T02:37:16.343Z,90.8
2019-03-22T02:38:16.665Z,90.8
2019-03-22T02:39:17.097Z,90.8
2019-03-22T02:40:16.427Z,90.8
2019-03-22T02:41:16.464Z,90.8
2019-03-22T02:42:16.776Z,90.8
2019-03-22T02:43:17.084Z,90.8
2019-03-22T02:44:16.392Z,91.0
2019-03-22T02:45:16.761Z,91.2
2019-03-22T02:46:17.074Z,91.1
2019-03-22T02:47:16.398Z,91.1
2019-03-22T02:48:16.711Z,91.1
2019-03-22T02:49:17.030Z,91.1
2019-03-22T02:50:20.484Z,91.0
2019-03-22T02:51:16.436Z,91.1
2019-03-22T02:52:16.754Z,91.3
2019-03-22T02:53:17.064Z,91.3
2019-03-22T02:54:16.401Z,91.2
2019-03-22T02:55:16.699Z,91.2
2019-03-22T02:56:17.018Z,91.2
2019-03-22T02:57:16.330Z,91.2
2019-03-22T02:58:21.551Z,91.1
2019-03-22T02:59:16.899Z,91.2
2019-03-22T03:00:17.275Z,91.1
2019-03-22T03:01:17.314Z,90.9
2019-03-22T03:02:16.596Z,90.8
2019-03-22T03:03:16.918Z,90.8
2019-03-22T03:04:17.227Z,90.9
2019-03-22T03:05:16.579Z,91.0
2019-03-22T03:06:16.897Z,91.0
2019-03-22T03:07:17.212Z,91.0
2019-03-22T03:08:16.514Z,91.2
2019-03-22T03:09:16.827Z,91.3
2019-03-22T03:10:17.123Z,91.3
2019-03-22T03:11:17.230Z,91.2
2019-03-22T03:12:16.579Z,91.3
2019-03-22T03:13:16.894Z,91.4
2019-03-22T03:14:17.205Z,91.2
2019-03-22T03:15:16.507Z,91.2
2019-03-22T03:16:16.803Z,91.2
2019-03-22T03:17:17.131Z,91.2
2019-03-22T03:18:16.419Z,91.2
2019-03-22T03:19:16.721Z,91.2
2019-03-22T03:20:17.053Z,91.0
2019-03-22T03:21:17.097Z,91.1
2019-03-22T03:22:16.390Z,91.1
2019-03-22T03:23:16.715Z,91.0
2019-03-22T03:24:17.062Z,91.2
2019-03-22T03:25:16.490Z,91.2
2019-03-22T03:26:16.780Z,91.2
2019-03-22T03:27:17.127Z,91.5
2019-03-22T03:28:16.456Z,91.4
2019-03-22T03:29:16.772Z,91.5
2019-03-22T03:30:17.127Z,91.7
2019-03-22T03:31:17.287Z,91.7
2019-03-22T03:32:16.614Z,91.8
2019-03-22T03:33:17.039Z,91.7
2019-03-22T03:34:16.357Z,91.5
2019-03-22T03:35:16.682Z,91.4
2019-03-22T03:36:17.003Z,91.5
2019-03-22T03:37:16.371Z,91.5
2019-03-22T03:38:16.679Z,91.5
2019-03-22T03:39:16.967Z,91.5
2019-03-22T03:40:17.294Z,91.5
2019-03-22T03:41:16.349Z,91.4
2019-03-22T03:42:16.672Z,91.4
2019-03-22T03:43:16.991Z,91.4
2019-03-22T03:44:16.309Z,91.4
2019-03-22T03:45:16.638Z,91.5
2019-03-22T03:46:16.965Z,91.5
2019-03-22T03:47:17.290Z,91.5
2019-03-22T03:48:16.598Z,91.4
2019-03-22T03:49:16.929Z,91.5
2019-03-22T03:50:17.244Z,91.5
2019-03-22T03:51:17.302Z,91.7
2019-03-22T03:52:16.613Z,91.8
2019-03-22T03:53:16.603Z,91.9
2019-03-22T03:54:16.897Z,92.0
2019-03-22T03:55:17.227Z,92.1
2019-03-22T03:56:16.529Z,92.2
2019-03-22T03:57:16.839Z,92.0
2019-03-22T03:58:17.166Z,91.8
2019-03-22T03:59:16.467Z,91.8
2019-03-22T04:00:16.788Z,91.8
2019-03-22T04:01:16.861Z,91.8
2019-03-22T04:02:17.149Z,91.8
2019-03-22T04:03:16.483Z,91.8
2019-03-22T04:04:16.764Z,92.0
2019-03-22T04:05:17.116Z,92.1
2019-03-22T04:06:16.451Z,92.2
2019-03-22T04:07:16.753Z,92.1
2019-03-22T04:08:17.037Z,92.2
2019-03-22T04:09:16.343Z,92.1
2019-03-22T04:10:16.665Z,92.0
2019-03-22T04:11:16.688Z,92.0
2019-03-22T04:12:17.000Z,91.9
2019-03-22T04:13:16.310Z,91.9
2019-03-22T04:14:16.646Z,91.9
2019-03-22T04:15:16.997Z,91.8
2019-03-22T04:16:16.311Z,91.9
2019-03-22T04:17:16.643Z,91.9
2019-03-22T04:18:16.937Z,92.1
2019-03-22T04:19:17.276Z,92.2
2019-03-22T04:20:16.628Z,92.1
2019-03-22T04:21:16.690Z,92.3
2019-03-22T04:22:17.015Z,92.3
2019-03-22T04:23:16.360Z,92.3
2019-03-22T04:24:16.676Z,92.5
2019-03-22T04:25:16.984Z,92.5
2019-03-22T04:26:17.310Z,92.5
2019-03-22T04:27:16.607Z,92.6
2019-03-22T04:28:16.929Z,92.6
2019-03-22T04:29:17.265Z,92.6
2019-03-22T04:30:16.627Z,92.6
2019-03-22T04:31:16.615Z,92.8
2019-03-22T04:32:16.911Z,93.0
2019-03-22T04:33:17.258Z,93.0
2019-03-22T04:34:16.580Z,93.0
2019-03-22T04:35:16.908Z,93.1
2019-03-22T04:36:17.225Z,93.2
2019-03-22T04:37:16.511Z,93.2
2019-03-22T04:38:16.814Z,93.2
2019-03-22T04:39:17.142Z,93.2
2019-03-22T04:40:16.438Z,93.2
2019-03-22T04:41:16.499Z,93.2
2019-03-22T04:42:16.813Z,93.2
2019-03-22T04:43:17.108Z,93.2
2019-03-22T04:44:16.434Z,93.2
2019-03-22T04:45:16.705Z,93.2
2019-03-22T04:46:16.996Z,93.3
2019-03-22T04:47:16.259Z,93.2
2019-03-22T04:48:16.568Z,93.1
2019-03-22T04:49:16.853Z,93.1
2019-03-22T04:50:17.158Z,93.1
2019-03-22T04:51:17.238Z,92.9
2019-03-22T04:52:16.582Z,93.0
2019-03-22T04:53:16.906Z,93.0
2019-03-22T04:54:17.220Z,93.0
2019-03-22T04:55:16.528Z,93.0
2019-03-22T04:56:16.828Z,92.8
2019-03-22T04:57:17.159Z,92.8
2019-03-22T04:58:16.438Z,92.6
2019-03-22T04:59:19.774Z,92.5
2019-03-22T05:00:17.140Z,92.4
2019-03-22T05:01:17.190Z,92.4
2019-03-22T05:02:16.524Z,92.3
2019-03-22T05:03:16.829Z,92.4
2019-03-22T05:04:17.123Z,92.4
2019-03-22T05:05:16.435Z,92.6
2019-03-22T05:06:16.737Z,92.7
2019-03-22T05:07:17.037Z,92.7
2019-03-22T05:08:16.379Z,92.6
2019-03-22T05:09:16.687Z,92.6
2019-03-22T05:10:17.024Z,92.6
2019-03-22T05:11:17.062Z,92.6
2019-03-22T05:12:16.386Z,92.7
2019-03-22T05:13:16.693Z,92.7
2019-03-22T05:14:17.010Z,92.7
2019-03-22T05:15:16.353Z,92.7
2019-03-22T05:16:16.658Z,92.7
2019-03-22T05:17:16.945Z,92.7
2019-03-22T05:18:17.228Z,92.8
2019-03-22T05:19:16.520Z,92.8
2019-03-22T05:20:16.825Z,92.8
2019-03-22T05:21:16.901Z,92.8
2019-03-22T05:22:17.195Z,92.5
2019-03-22T05:23:16.508Z,92.7
2019-03-22T05:24:18.515Z,92.7
2019-03-22T05:25:16.844Z,92.7
2019-03-22T05:26:17.157Z,92.6
2019-03-22T05:27:16.492Z,92.5
2019-03-22T05:28:16.782Z,92.5
2019-03-22T05:29:17.077Z,92.4
2019-03-22T05:30:16.398Z,92.3
2019-03-22T05:31:16.444Z,92.2
2019-03-22T05:32:16.744Z,92.2
2019-03-22T05:33:17.047Z,92.2
2019-03-22T05:34:16.356Z,92.1
2019-03-22T05:35:16.655Z,92.2
2019-03-22T05:36:16.955Z,92.1
2019-03-22T05:37:17.258Z,92.1
2019-03-22T05:38:16.580Z,92.1
2019-03-22T05:39:16.886Z,92.1
2019-03-22T05:40:17.205Z,92.0
2019-03-22T05:41:17.257Z,92.0
2019-03-22T05:42:16.566Z,92.0
2019-03-22T05:43:16.874Z,92.0
2019-03-22T05:44:17.155Z,91.9
2019-03-22T05:45:16.428Z,92.0
2019-03-22T05:46:16.712Z,92.0
2019-03-22T05:47:17.022Z,92.0
2019-03-22T05:48:16.278Z,91.9
2019-03-22T05:49:16.586Z,91.9
2019-03-22T05:50:16.915Z,92.1
2019-03-22T05:51:16.989Z,91.8
2019-03-22T05:52:16.296Z,91.8
2019-03-22T05:53:16.592Z,91.7
2019-03-22T05:54:16.901Z,91.6
2019-03-22T05:55:17.224Z,91.4
2019-03-22T05:56:16.550Z,91.4
2019-03-22T05:57:16.518Z,91.3
2019-03-22T05:58:16.817Z,91.2
2019-03-22T05:59:17.104Z,91.0
2019-03-22T06:00:16.420Z,90.8
2019-03-22T06:01:16.438Z,90.8
2019-03-22T06:02:16.772Z,90.9
2019-03-22T06:03:17.083Z,90.9
2019-03-22T06:04:16.385Z,90.8
2019-03-22T06:05:16.667Z,90.7
2019-03-22T06:06:16.934Z,90.7
2019-03-22T06:07:17.232Z,90.5
2019-03-22T06:08:16.536Z,90.3
2019-03-22T06:09:16.831Z,90.3
2019-03-22T06:10:17.149Z,90.4
2019-03-22T06:11:17.223Z,90.4
2019-03-22T06:12:16.748Z,90.4
2019-03-22T06:13:17.060Z,90.3
2019-03-22T06:14:16.355Z,90.4
2019-03-22T06:15:16.660Z,90.2
2019-03-22T06:16:16.971Z,90.2
2019-03-22T06:17:17.229Z,90.0
2019-03-22T06:18:16.545Z,89.7
2019-03-22T06:19:16.890Z,89.5
2019-03-22T06:20:17.220Z,89.5
2019-03-22T06:21:17.246Z,89.2
2019-03-22T06:22:16.528Z,89.0
2019-03-22T06:23:16.821Z,89.0
2019-03-22T06:24:17.130Z,88.8
2019-03-22T06:25:16.471Z,88.4
2019-03-22T06:26:16.802Z,88.0
2019-03-22T06:27:17.095Z,87.9
2019-03-22T06:28:16.443Z,87.9
2019-03-22T06:29:16.756Z,87.4
2019-03-22T06:30:17.056Z,87.3
2019-03-22T06:31:17.086Z,87.0
2019-03-22T06:32:16.402Z,86.8
2019-03-22T06:33:16.702Z,86.6
2019-03-22T06:34:17.010Z,86.4
2019-03-22T06:35:16.366Z,86.3
2019-03-22T06:36:16.668Z,86.3
2019-03-22T06:37:16.985Z,86.0
2019-03-22T06:38:17.278Z,85.5
2019-03-22T06:39:16.590Z,85.0
2019-03-22T06:40:16.899Z,84.8
2019-03-22T06:41:16.957Z,84.7
2019-03-22T06:42:17.277Z,84.2
2019-03-22T06:43:16.585Z,84.3
2019-03-22T06:44:16.885Z,84.3
2019-03-22T06:45:17.205Z,84.2
2019-03-22T06:46:16.507Z,83.8
2019-03-22T06:47:16.803Z,83.8
2019-03-22T06:48:17.163Z,83.3
2019-03-22T06:49:16.513Z,83.8
2019-03-22T06:50:16.824Z,83.6
2019-03-22T06:51:16.890Z,83.4
2019-03-22T06:52:17.225Z,82.8
2019-03-22T06:53:16.510Z,82.6
2019-03-22T06:54:16.842Z,82.4
2019-03-22T06:55:17.180Z,82.2
2019-03-22T06:56:16.483Z,81.4
2019-03-22T06:57:16.807Z,81.5
2019-03-22T06:58:17.118Z,81.3
2019-03-22T06:59:16.401Z,81.8
2019-03-22T07:00:16.710Z,81.4
2019-03-22T07:01:16.764Z,81.2
2019-03-22T07:02:17.058Z,80.6
2019-03-22T07:03:16.364Z,80.4
2019-03-22T07:04:16.668Z,80.7
2019-03-22T07:05:16.998Z,81.4
2019-03-22T07:06:16.336Z,81.0
2019-03-22T07:07:16.640Z,80.7
2019-03-22T07:08:16.929Z,80.2
2019-03-22T07:09:17.241Z,79.4
2019-03-22T07:10:16.553Z,79.2
2019-03-22T07:11:16.583Z,79.1
2019-03-22T07:12:16.847Z,77.7
2019-03-22T07:13:17.147Z,77.2
2019-03-22T07:14:16.450Z,77.0
2019-03-22T07:15:16.749Z,76.7
2019-03-22T07:16:17.049Z,77.4
2019-03-22T07:17:16.375Z,77.4
2019-03-22T07:18:16.684Z,77.6
2019-03-22T07:19:17.001Z,77.1
2019-03-22T07:20:16.334Z,77.2
2019-03-22T07:21:16.375Z,77.2
2019-03-22T07:22:16.684Z,76.5
2019-03-22T07:23:16.966Z,76.8
2019-03-22T07:24:17.267Z,76.4
2019-03-22T07:25:16.592Z,75.3
2019-03-22T07:26:16.936Z,75.8
2019-03-22T07:27:17.233Z,75.8
2019-03-22T07:28:16.520Z,74.8
2019-03-22T07:29:16.813Z,73.6
2019-03-22T07:30:19.398Z,73.5
2019-03-22T07:31:17.174Z,73.8
2019-03-22T07:32:16.488Z,72.3
2019-03-22T07:33:16.792Z,72.5
2019-03-22T07:34:17.098Z,72.0
2019-03-22T07:35:16.409Z,71.7
2019-03-22T07:36:16.709Z,70.6
2019-03-22T07:37:17.030Z,69.9
2019-03-22T07:38:16.323Z,69.8
2019-03-22T07:39:16.628Z,69.5
2019-03-22T07:40:16.929Z,68.7
2019-03-22T07:41:16.969Z,67.4
2019-03-22T07:42:17.823Z,66.6
2019-03-22T07:43:17.132Z,66.2
2019-03-22T07:44:16.467Z,65.8
2019-03-22T07:45:16.774Z,65.0
2019-03-22T07:46:17.083Z,64.2
2019-03-22T07:47:16.416Z,64.2
2019-03-22T07:48:16.713Z,63.7
2019-03-22T07:49:17.000Z,63.7
2019-03-22T07:50:16.308Z,63.5
2019-03-22T07:51:16.378Z,62.9
2019-03-22T07:52:16.677Z,62.7
2019-03-22T07:53:16.975Z,62.4
2019-03-22T07:54:17.288Z,61.8
2019-03-22T07:55:16.589Z,61.9
2019-03-22T07:56:16.897Z,62.1
2019-03-22T07:57:17.223Z,61.1
2019-03-22T07:58:16.515Z,61.2
2019-03-22T07:59:16.838Z,60.9
2019-03-22T08:00:17.229Z,62.0
2019-03-22T08:01:17.206Z,61.7
2019-03-22T08:02:16.522Z,61.3
2019-03-22T08:03:16.797Z,62.0
2019-03-22T08:04:17.097Z,62.2
2019-03-22T08:05:16.411Z,63.4
2019-03-22T08:06:16.718Z,64.6
2019-03-22T08:07:17.017Z,64.0
2019-03-22T08:08:16.328Z,62.0
2019-03-22T08:09:16.663Z,60.6
2019-03-22T08:10:17.088Z,61.6
2019-03-22T08:11:17.091Z,63.2
2019-03-22T08:12:16.392Z,63.4
2019-03-22T08:13:16.690Z,63.4
2019-03-22T08:14:17.025Z,62.4
2019-03-22T08:15:16.366Z,63.2
2019-03-22T08:16:16.675Z,63.0
2019-03-22T08:17:17.009Z,63.8
2019-03-22T08:18:16.305Z,63.2
2019-03-22T08:19:16.637Z,63.0
2019-03-22T08:20:16.964Z,61.7
2019-03-22T08:21:17.021Z,61.3
2019-03-22T08:22:16.354Z,60.7
2019-03-22T08:23:16.686Z,60.2
2019-03-22T08:24:17.000Z,60.9
2019-03-22T08:25:16.338Z,61.1
2019-03-22T08:26:16.671Z,60.4
2019-03-22T08:27:17.023Z,59.5
2019-03-22T08:28:16.351Z,58.4
2019-03-22T08:29:16.712Z,58.1
2019-03-22T08:30:17.044Z,57.4
2019-03-22T08:31:17.117Z,56.4
2019-03-22T08:32:16.447Z,56.0
2019-03-22T08:33:16.793Z,56.0
2019-03-22T08:34:17.200Z,55.5
2019-03-22T08:35:16.614Z,57.0
2019-03-22T08:36:16.996Z,57.1
2019-03-22T08:37:16.309Z,56.4
2019-03-22T08:38:17.785Z,56.9
2019-03-22T08:39:17.081Z,55.9
2019-03-22T08:40:16.408Z,56.0
2019-03-22T08:41:16.493Z,54.2
2019-03-22T08:42:16.811Z,55.2
2019-03-22T08:43:17.169Z,56.7
2019-03-22T08:44:16.510Z,56.2
2019-03-22T08:45:16.913Z,55.8
2019-03-22T08:46:17.224Z,54.6
2019-03-22T08:47:16.559Z,53.8
2019-03-22T08:48:16.866Z,53.9
2019-03-22T08:49:17.322Z,54.0
2019-03-22T08:50:16.805Z,53.4
2019-03-22T08:51:16.895Z,54.1
2019-03-22T08:52:17.212Z,55.4
2019-03-22T08:53:16.563Z,53.8
2019-03-22T08:54:16.922Z,54.3
2019-03-22T08:55:17.299Z,53.6
2019-03-22T08:56:16.622Z,55.2
2019-03-22T08:57:16.920Z,54.5
2019-03-22T08:58:18.986Z,54.0
2019-03-22T08:59:17.286Z,52.4
2019-03-22T09:00:16.726Z,51.5
2019-03-22T09:01:16.760Z,51.0
2019-03-22T09:02:17.084Z,50.5
2019-03-22T09:03:16.393Z,49.8
2019-03-22T09:04:16.737Z,50.3
2019-03-22T09:05:17.068Z,49.7
2019-03-22T09:06:16.390Z,50.4
2019-03-22T09:07:16.749Z,51.0
2019-03-22T09:08:17.070Z,49.9
2019-03-22T09:09:16.414Z,50.0
2019-03-22T09:10:16.738Z,49.1
2019-03-22T09:11:18.367Z,49.5
2019-03-22T09:12:16.690Z,49.0
2019-03-22T09:13:16.988Z,47.9
2019-03-22T09:14:16.298Z,47.5
2019-03-22T09:15:16.657Z,47.5
2019-03-22T09:16:17.029Z,48.0
2019-03-22T09:17:16.326Z,47.6
2019-03-22T09:18:16.655Z,47.1
2019-03-22T09:19:17.015Z,46.8
2019-03-22T09:20:16.326Z,47.0
2019-03-22T09:21:16.425Z,46.3
2019-03-22T09:22:16.730Z,46.3
2019-03-22T09:23:17.115Z,46.8
2019-03-22T09:24:19.200Z,46.3
2019-03-22T09:25:16.581Z,46.0
2019-03-22T09:26:20.203Z,47.6
2019-03-22T09:27:16.528Z,47.5
2019-03-22T09:28:16.884Z,47.3
2019-03-22T09:29:17.209Z,46.2
2019-03-22T09:30:16.547Z,46.9
2019-03-22T09:31:16.652Z,45.8
2019-03-22T09:32:16.963Z,45.9
2019-03-22T09:33:17.304Z,45.5
2019-03-22T09:34:16.631Z,45.5
2019-03-22T09:35:16.965Z,45.7
2019-03-22T09:36:17.278Z,45.7
2019-03-22T09:37:16.598Z,45.2
2019-03-22T09:38:16.909Z,45.6
2019-03-22T09:39:17.230Z,45.4
2019-03-22T09:40:16.593Z,45.0
2019-03-22T09:41:16.644Z,44.7
2019-03-22T09:42:17.012Z,44.4
2019-03-22T09:43:16.378Z,43.9
2019-03-22T09:44:16.665Z,44.9
2019-03-22T09:45:16.993Z,44.8
2019-03-22T09:46:16.298Z,45.6
2019-03-22T09:47:17.046Z,44.5
2019-03-22T09:48:16.349Z,45.1
2019-03-22T09:49:16.708Z,44.6
2019-03-22T09:50:17.072Z,44.8
2019-03-22T09:51:17.172Z,45.6
2019-03-22T09:52:16.526Z,45.8
2019-03-22T09:53:16.883Z,44.1
2019-03-22T09:54:17.253Z,44.2
2019-03-22T09:55:16.612Z,45.0
2019-03-22T09:56:16.923Z,45.0
2019-03-22T09:57:17.293Z,44.1
2019-03-22T09:58:16.694Z,44.2
2019-03-22T09:59:17.151Z,43.5
2019-03-22T10:00:16.531Z,44.6
2019-03-22T10:01:24.342Z,45.5
2019-03-22T10:02:16.909Z,46.0
2019-03-22T10:03:17.270Z,46.8
2019-03-22T10:04:16.640Z,47.5
2019-03-22T10:05:16.926Z,48.0
2019-03-22T10:06:17.370Z,48.0
2019-03-22T10:07:16.755Z,47.8
2019-03-22T10:08:17.066Z,48.0
2019-03-22T10:09:16.430Z,48.0
2019-03-22T10:10:16.836Z,48.1
2019-03-22T10:11:16.837Z,48.0
2019-03-22T10:12:17.184Z,47.9
2019-03-22T10:13:16.498Z,47.8
2019-03-22T10:14:16.861Z,47.7
2019-03-22T10:15:17.209Z,48.4
2019-03-22T10:16:16.547Z,48.5
2019-03-22T10:17:16.931Z,48.7
2019-03-22T10:18:17.401Z,48.0
2019-03-22T10:19:16.710Z,48.4
2019-03-22T10:20:17.067Z,48.6
2019-03-22T10:21:23.008Z,49.1
2019-03-22T10:22:16.457Z,49.8
2019-03-22T10:23:16.883Z,49.3
2019-03-22T10:24:17.254Z,50.0
2019-03-22T10:25:16.661Z,49.0
2019-03-22T10:26:17.123Z,48.7
2019-03-22T10:27:16.462Z,49.8
2019-03-22T10:28:16.919Z,49.1
2019-03-22T10:29:17.387Z,48.9
2019-03-22T10:30:16.863Z,49.1
2019-03-22T10:31:16.748Z,48.8
2019-03-22T10:32:17.139Z,49.7
2019-03-22T10:33:23.299Z,49.0
2019-03-22T10:34:16.705Z,48.0
2019-03-22T10:35:26.689Z,46.8
2019-03-22T10:36:17.135Z,47.1
2019-03-22T10:37:16.472Z,47.6
2019-03-22T10:38:30.767Z,48.7
2019-03-22T10:39:17.304Z,47.8
2019-03-22T10:40:16.705Z,48.2
2019-03-22T10:41:16.718Z,48.5
2019-03-22T10:42:17.110Z,48.5
2019-03-22T10:43:16.467Z,48.0
2019-03-22T10:44:16.865Z,48.3
2019-03-22T10:45:17.197Z,47.0
2019-03-22T10:46:16.683Z,46.0
2019-03-22T10:47:18.490Z,47.5
2019-03-22T10:48:16.878Z,48.0
2019-03-22T10:49:17.219Z,47.5
2019-03-22T10:50:16.632Z,47.6
2019-03-22T10:51:16.638Z,47.8
2019-03-22T10:52:17.034Z,48.9
2019-03-22T10:53:16.450Z,48.6
2019-03-22T10:54:16.835Z,47.9
2019-03-22T10:55:30.504Z,47.6
2019-03-22T10:56:16.850Z,47.1
2019-03-22T10:57:17.169Z,46.8
2019-03-22T10:58:21.623Z,45.2
2019-03-22T10:59:16.995Z,45.9
2019-03-22T11:00:16.317Z,46.3
2019-03-22T11:01:16.395Z,46.1
2019-03-22T11:02:16.725Z,46.2
2019-03-22T11:03:17.007Z,45.8
2019-03-22T11:04:16.309Z,45.0
2019-03-22T11:05:16.606Z,45.0
2019-03-22T11:06:26.729Z,44.8
2019-03-22T11:07:17.214Z,44.7
2019-03-22T11:08:16.511Z,45.7
2019-03-22T11:09:16.862Z,44.9
2019-03-22T11:10:17.172Z,43.5
2019-03-22T11:11:17.245Z,44.7
2019-03-22T11:12:16.531Z,43.2
2019-03-22T11:13:16.818Z,44.4
2019-03-22T11:14:17.119Z,44.0
2019-03-22T11:15:16.439Z,44.7
2019-03-22T11:16:16.782Z,44.5
2019-03-22T11:17:17.091Z,45.0
2019-03-22T11:18:16.377Z,45.0
2019-03-22T11:19:16.667Z,46.9
2019-03-22T11:20:17.023Z,47.6
2019-03-22T11:21:17.005Z,47.4
2019-03-22T11:22:16.274Z,47.6
2019-03-22T11:23:16.608Z,48.1
2019-03-22T11:24:16.894Z,48.6
2019-03-22T11:25:17.228Z,48.0
2019-03-22T11:26:16.537Z,47.6
2019-03-22T11:27:16.822Z,47.5
2019-03-22T11:28:17.156Z,45.6
2019-03-22T11:29:16.458Z,44.4
2019-03-22T11:30:16.809Z,44.7
2019-03-22T11:31:16.776Z,44.2
2019-03-22T11:32:17.076Z,45.0
2019-03-22T11:33:16.371Z,45.5
2019-03-22T11:34:16.667Z,45.7
2019-03-22T11:35:16.955Z,45.5
2019-03-22T11:36:17.258Z,46.3
2019-03-22T11:37:16.584Z,46.0
2019-03-22T11:38:16.900Z,45.0
2019-03-22T11:39:17.221Z,44.5
2019-03-22T11:40:16.539Z,43.9
2019-03-22T11:41:16.566Z,44.2
2019-03-22T11:42:16.867Z,42.9
2019-03-22T11:43:17.147Z,43.2
2019-03-22T11:44:16.456Z,42.6
2019-03-22T11:45:16.787Z,42.6
2019-03-22T11:46:17.101Z,41.9
2019-03-22T11:47:16.429Z,42.3
2019-03-22T11:48:16.737Z,41.9
2019-03-22T11:49:17.041Z,42.0
2019-03-22T11:50:16.374Z,43.2
2019-03-22T11:51:16.391Z,42.0
2019-03-22T11:52:16.699Z,43.0
2019-03-22T11:53:16.980Z,42.5
2019-03-22T11:54:17.281Z,42.5
2019-03-22T11:55:16.615Z,43.0
2019-03-22T11:56:16.901Z,42.9
2019-03-22T11:57:17.208Z,42.5
2019-03-22T11:58:16.575Z,42.4
2019-03-22T11:59:16.883Z,43.7
2019-03-22T12:00:17.183Z,44.0
2019-03-22T12:01:22.389Z,43.9
2019-03-22T12:02:22.800Z,43.6
2019-03-22T12:03:17.169Z,43.6
2019-03-22T12:04:16.472Z,43.5
2019-03-22T12:05:16.733Z,43.8
2019-03-22T12:06:17.060Z,43.6
2019-03-22T12:07:16.357Z,43.7
2019-03-22T12:08:16.687Z,44.2
2019-03-22T12:09:16.983Z,44.0
2019-03-22T12:10:16.322Z,44.2
2019-03-22T12:11:16.347Z,44.8
2019-03-22T12:12:16.639Z,44.1
2019-03-22T12:13:16.960Z,44.2
2019-03-22T12:14:17.268Z,44.2
2019-03-22T12:15:16.569Z,44.1
2019-03-22T12:16:16.876Z,44.7
2019-03-22T12:17:17.188Z,45.1
2019-03-22T12:18:16.483Z,45.2
2019-03-22T12:19:16.790Z,45.4
2019-03-22T12:20:17.130Z,45.3
2019-03-22T12:21:17.158Z,45.0
2019-03-22T12:22:16.466Z,44.8
2019-03-22T12:23:16.802Z,44.8
2019-03-22T12:24:18.879Z,44.8
2019-03-22T12:25:17.167Z,45.2
2019-03-22T12:26:16.446Z,45.1
2019-03-22T12:27:16.750Z,44.8
2019-03-22T12:28:17.044Z,45.1
2019-03-22T12:29:16.349Z,44.9
2019-03-22T12:30:16.654Z,44.9
2019-03-22T12:31:16.710Z,44.7
2019-03-22T12:32:17.035Z,45.4
2019-03-22T12:33:16.370Z,44.8
2019-03-22T12:34:16.694Z,44.8
2019-03-22T12:35:16.967Z,44.8
2019-03-22T12:36:17.281Z,44.4
2019-03-22T12:37:16.545Z,44.9
2019-03-22T12:38:16.883Z,45.2
2019-03-22T12:39:17.210Z,45.1
2019-03-22T12:40:16.519Z,45.7
2019-03-22T12:41:16.566Z,45.4
2019-03-22T12:42:16.823Z,45.4
2019-03-22T12:43:17.196Z,45.0
2019-03-22T12:44:16.514Z,45.8
2019-03-22T12:45:16.820Z,46.1
2019-03-22T12:46:17.114Z,46.0
2019-03-22T12:47:16.416Z,45.8
2019-03-22T12:48:16.729Z,46.0
2019-03-22T12:49:17.017Z,46.4
2019-03-22T12:50:16.332Z,44.9
2019-03-22T12:51:16.403Z,46.0
2019-03-22T12:52:16.691Z,45.6
2019-03-22T12:53:17.006Z,45.4
2019-03-22T12:54:16.296Z,44.8
2019-03-22T12:55:16.592Z,45.4
2019-03-22T12:56:16.900Z,45.5
2019-03-22T12:57:17.203Z,44.4
2019-03-22T12:58:16.504Z,44.6
2019-03-22T12:59:16.809Z,45.1
2019-03-22T13:00:17.107Z,45.1
2019-03-22T13:01:17.160Z,45.6
2019-03-22T13:02:16.491Z,45.5
2019-03-22T13:03:16.791Z,45.8
2019-03-22T13:04:17.105Z,45.9
2019-03-22T13:05:16.395Z,45.3
2019-03-22T13:06:16.686Z,45.6
2019-03-22T13:07:16.995Z,45.2
2019-03-22T13:08:16.272Z,45.0
2019-03-22T13:09:16.575Z,45.9
2019-03-22T13:10:16.879Z,44.9
2019-03-22T13:11:16.901Z,45.2
2019-03-22T13:12:17.190Z,45.8
2019-03-22T13:13:16.485Z,45.2
2019-03-22T13:14:16.769Z,45.1
2019-03-22T13:15:17.081Z,45.1
2019-03-22T13:16:16.380Z,45.4
2019-03-22T13:17:16.693Z,45.1
2019-03-22T13:18:17.007Z,45.0